Ginga — JJ4054 — position and weather

sailwx.info

Track history (hours):
 
Tides and Currents Weather Stations Pressure Air Temp Water Temp Dewpoint Dewpoint Depression Visibility Wind Speed Wind Dir Waves Ship Positions

Ginga

Last reported at 2016-Feb-09 00:31 UTC. Time now 2016-Feb-09 03:29 UTC.
Position N 34°39' E 135°09'.

Length 28 m; draft 1.6 m.

Type: Other ship. MMSI: 431301704.

Date/timePositionNaut miles runAvg speedWind from/ knotsBaromVisibWave heightAir tempDewpointWater temp
2016-Feb-09 00:31N 34°39' E 135°09'2 1.7
2016-Feb-08 23:33N 34°40' E 135°11'2 1.6
2016-Feb-08 22:33N 34°39' E 135°09'0 0.0
2016-Feb-08 08:06N 34°39' E 135°09'5 9.8
2016-Feb-08 07:33N 34°34' E 135°08'13 6.6
2016-Feb-08 05:32N 34°22' E 135°01'1515.2
2016-Feb-08 04:33N 34°31' E 135°15'9 7.6
2016-Feb-08 03:24N 34°33' E 135°25'3 0.8
2016-Feb-08 00:14N 34°31' E 135°24'1015.1
2016-Feb-07 23:33N 34°34' E 135°12'1110.9
2016-Feb-07 22:32N 34°38' E 134°59'8 8.0
2016-Feb-07 21:33N 34°37' E 135°09'2 2.5
2016-Feb-07 20:33N 34°39' E 135°09'4 0.3
2016-Feb-07 03:33N 34°37' E 135°14'10 9.6
2016-Feb-07 02:31N 34°33' E 135°25'8 7.6
2016-Feb-07 01:31N 34°32' E 135°16'2510.3
2016-Feb-06 23:06N 34°11' E 135°00'914.0
2016-Feb-06 22:28N 34°20' E 134°59'1415.0
2016-Feb-06 21:33N 34°32' E 135°06'8 7.6
2016-Feb-06 20:33N 34°39' E 135°09'0 0.0
2016-Feb-06 04:25N 34°39' E 135°09'1315.2
2016-Feb-06 03:32N 34°33' E 135°24'4 2.8
2016-Feb-06 02:11N 34°33' E 135°19'2 3.3
2016-Feb-06 01:33N 34°35' E 135°17'8 7.9
2016-Feb-06 00:33N 34°39' E 135°09'0 0.0
2016-Feb-05 11:33N 34°39' E 135°09'19 8.9
2016-Feb-05 09:28N 34°22' E 134°60'1213.1
2016-Feb-05 08:33N 34°32' E 135°07'12 2.4
2016-Feb-05 03:33N 34°38' E 134°54'1111.0
2016-Feb-05 02:33N 34°38' E 135°07'2 1.8
2016-Feb-05 01:34N 34°37' E 135°05'5 4.7
2016-Feb-05 00:27N 34°37' E 134°59'8 8.9
2016-Feb-04 23:33N 34°35' E 135°08'5 4.6
2016-Feb-04 22:33N 34°39' E 135°09'0 0.0
2016-Feb-04 05:19N 34°39' E 135°09'10 2.6
2016-Feb-04 01:25N 34°37' E 134°57'7 7.9
2016-Feb-04 00:31N 34°35' E 135°06'5 5.4
2016-Feb-03 23:33N 34°30' E 135°06'19 9.0
2016-Feb-03 21:29N 34°12' E 134°60'1314.2
2016-Feb-03 20:33N 34°25' E 135°01'1515.3
2016-Feb-03 19:33N 34°39' E 135°10'2 0.1
2016-Feb-03 05:34N 34°38' E 135°08'8 6.7
2016-Feb-03 04:18N 34°38' E 134°58'1 0.3
2016-Feb-03 01:33N 34°37' E 134°57'8 8.4
2016-Feb-03 00:33N 34°35' E 135°07'4 1.4
2016-Feb-02 21:30N 34°38' E 135°03'2 2.5
2016-Feb-02 20:33N 34°36' E 135°05'5 5.3
2016-Feb-02 19:33N 34°39' E 135°09'0 0.0
2016-Feb-01 20:32N 34°39' E 135°09'1111.1
2016-Feb-01 19:32N 34°37' E 134°56'9 9.5
2016-Feb-01 18:33N 34°35' E 135°07'4 4.3
2016-Feb-01 17:33N 34°39' E 135°09'  
Track history (hours):
 
Tides and Currents Weather Stations Pressure Air Temp Water Temp Dewpoint Dewpoint Depression Visibility Wind Speed Wind Dir Waves Ship Positions

Ginga

Last reported at 2016-Feb-09 00:31 UTC. Time now 2016-Feb-09 03:29 UTC.
Position N 34°39' E 135°09'.

Length 28 m; draft 1.6 m.

Type: Other ship. MMSI: 431301704.

Date/timePositionNaut miles runAvg speedWind from/ knotsBaromVisibWave heightAir tempDewpointWater temp
2016-Feb-09 00:31N 34°39' E 135°09'2 1.7
2016-Feb-08 23:33N 34°40' E 135°11'2 1.6
2016-Feb-08 22:33N 34°39' E 135°09'0 0.0
2016-Feb-08 08:06N 34°39' E 135°09'5 9.8
2016-Feb-08 07:33N 34°34' E 135°08'13 6.6
2016-Feb-08 05:32N 34°22' E 135°01'1515.2
2016-Feb-08 04:33N 34°31' E 135°15'9 7.6
2016-Feb-08 03:24N 34°33' E 135°25'3 0.8
2016-Feb-08 00:14N 34°31' E 135°24'1015.1
2016-Feb-07 23:33N 34°34' E 135°12'1110.9
2016-Feb-07 22:32N 34°38' E 134°59'8 8.0
2016-Feb-07 21:33N 34°37' E 135°09'2 2.5
2016-Feb-07 20:33N 34°39' E 135°09'4 0.3
2016-Feb-07 03:33N 34°37' E 135°14'10 9.6
2016-Feb-07 02:31N 34°33' E 135°25'8 7.6
2016-Feb-07 01:31N 34°32' E 135°16'2510.3
2016-Feb-06 23:06N 34°11' E 135°00'914.0
2016-Feb-06 22:28N 34°20' E 134°59'1415.0
2016-Feb-06 21:33N 34°32' E 135°06'8 7.6
2016-Feb-06 20:33N 34°39' E 135°09'0 0.0
2016-Feb-06 04:25N 34°39' E 135°09'1315.2
2016-Feb-06 03:32N 34°33' E 135°24'4 2.8
2016-Feb-06 02:11N 34°33' E 135°19'2 3.3
2016-Feb-06 01:33N 34°35' E 135°17'8 7.9
2016-Feb-06 00:33N 34°39' E 135°09'0 0.0
2016-Feb-05 11:33N 34°39' E 135°09'19 8.9
2016-Feb-05 09:28N 34°22' E 134°60'1213.1
2016-Feb-05 08:33N 34°32' E 135°07'12 2.4
2016-Feb-05 03:33N 34°38' E 134°54'1111.0
2016-Feb-05 02:33N 34°38' E 135°07'2 1.8
2016-Feb-05 01:34N 34°37' E 135°05'5 4.7
2016-Feb-05 00:27N 34°37' E 134°59'8 8.9
2016-Feb-04 23:33N 34°35' E 135°08'5 4.6
2016-Feb-04 22:33N 34°39' E 135°09'0 0.0
2016-Feb-04 05:19N 34°39' E 135°09'10 2.6
2016-Feb-04 01:25N 34°37' E 134°57'7 7.9
2016-Feb-04 00:31N 34°35' E 135°06'5 5.4
2016-Feb-03 23:33N 34°30' E 135°06'19 9.0
2016-Feb-03 21:29N 34°12' E 134°60'1314.2
2016-Feb-03 20:33N 34°25' E 135°01'1515.3
2016-Feb-03 19:33N 34°39' E 135°10'2 0.1
2016-Feb-03 05:34N 34°38' E 135°08'8 6.7
2016-Feb-03 04:18N 34°38' E 134°58'1 0.3
2016-Feb-03 01:33N 34°37' E 134°57'8 8.4
2016-Feb-03 00:33N 34°35' E 135°07'4 1.4
2016-Feb-02 21:30N 34°38' E 135°03'2 2.5
2016-Feb-02 20:33N 34°36' E 135°05'5 5.3
2016-Feb-02 19:33N 34°39' E 135°09'0 0.0
2016-Feb-01 20:32N 34°39' E 135°09'1111.1
2016-Feb-01 19:32N 34°37' E 134°56'9 9.5
2016-Feb-01 18:33N 34°35' E 135°07'4 4.3
2016-Feb-01 17:33N 34°39' E 135°09'  

Dump ship's entire track history